sensor_id;sensor_type;location;lat;lon;timestamp;temperature;humidity
31391;DHT22;18022;45.492;11.548;2023-08-30T00:00:18;17.80;99.90
31391;DHT22;18022;45.492;11.548;2023-08-30T00:02:47;17.80;99.90
31391;DHT22;18022;45.492;11.548;2023-08-30T00:05:13;17.80;99.90
31391;DHT22;18022;45.492;11.548;2023-08-30T00:07:39;17.80;99.90
31391;DHT22;18022;45.492;11.548;2023-08-30T00:10:06;17.80;99.90
31391;DHT22;18022;45.492;11.548;2023-08-30T00:12:32;17.80;99.90
31391;DHT22;18022;45.492;11.548;2023-08-30T00:14:58;17.80;99.90
31391;DHT22;18022;45.492;11.548;2023-08-30T00:17:24;17.80;99.90
31391;DHT22;18022;45.492;11.548;2023-08-30T00:19:50;17.80;99.90
31391;DHT22;18022;45.492;11.548;2023-08-30T00:22:16;17.70;99.90
31391;DHT22;18022;45.492;11.548;2023-08-30T00:24:42;17.70;99.90
31391;DHT22;18022;45.492;11.548;2023-08-30T00:27:07;17.70;99.90
31391;DHT22;18022;45.492;11.548;2023-08-30T00:29:33;17.70;99.90
31391;DHT22;18022;45.492;11.548;2023-08-30T00:31:59;17.70;99.90
31391;DHT22;18022;45.492;11.548;2023-08-30T00:34:24;17.70;99.90
31391;DHT22;18022;45.492;11.548;2023-08-30T00:36:50;17.60;99.90
31391;DHT22;18022;45.492;11.548;2023-08-30T00:39:16;17.60;99.90
31391;DHT22;18022;45.492;11.548;2023-08-30T00:41:41;17.60;99.90
31391;DHT22;18022;45.492;11.548;2023-08-30T00:44:07;17.60;99.90
31391;DHT22;18022;45.492;11.548;2023-08-30T00:46:33;17.60;99.90
31391;DHT22;18022;45.492;11.548;2023-08-30T00:49:00;17.60;99.90
31391;DHT22;18022;45.492;11.548;2023-08-30T00:51:26;17.70;99.90
31391;DHT22;18022;45.492;11.548;2023-08-30T00:53:54;17.70;99.90
31391;DHT22;18022;45.492;11.548;2023-08-30T00:56:21;17.70;99.90
31391;DHT22;18022;45.492;11.548;2023-08-30T00:58:50;17.70;99.90
31391;DHT22;18022;45.492;11.548;2023-08-30T01:01:16;17.70;99.90
31391;DHT22;18022;45.492;11.548;2023-08-30T01:03:42;17.60;99.90
31391;DHT22;18022;45.492;11.548;2023-08-30T01:06:08;17.70;99.90
31391;DHT22;18022;45.492;11.548;2023-08-30T01:08:35;17.70;99.90
31391;DHT22;18022;45.492;11.548;2023-08-30T01:13:42;17.60;99.90
31391;DHT22;18022;45.492;11.548;2023-08-30T01:16:10;17.70;99.90
31391;DHT22;18022;45.492;11.548;2023-08-30T01:18:38;17.60;99.90
31391;DHT22;18022;45.492;11.548;2023-08-30T01:21:10;17.60;99.90
31391;DHT22;18022;45.492;11.548;2023-08-30T01:23:47;17.60;99.90
31391;DHT22;18022;45.492;11.548;2023-08-30T01:26:29;17.60;99.90
31391;DHT22;18022;45.492;11.548;2023-08-30T01:29:01;17.60;99.90
31391;DHT22;18022;45.492;11.548;2023-08-30T01:31:29;17.70;99.90
31391;DHT22;18022;45.492;11.548;2023-08-30T01:33:59;17.70;99.90
31391;DHT22;18022;45.492;11.548;2023-08-30T01:36:26;17.60;99.90
31391;DHT22;18022;45.492;11.548;2023-08-30T01:38:53;17.60;99.90
31391;DHT22;18022;45.492;11.548;2023-08-30T01:41:19;17.60;99.90
31391;DHT22;18022;45.492;11.548;2023-08-30T01:43:46;17.50;99.90
31391;DHT22;18022;45.492;11.548;2023-08-30T01:46:13;17.50;99.90
31391;DHT22;18022;45.492;11.548;2023-08-30T01:48:40;17.50;99.90
31391;DHT22;18022;45.492;11.548;2023-08-30T01:51:07;17.50;99.90
31391;DHT22;18022;45.492;11.548;2023-08-30T01:53:34;17.50;99.90
31391;DHT22;18022;45.492;11.548;2023-08-30T01:56:00;17.60;99.90
31391;DHT22;18022;45.492;11.548;2023-08-30T01:58:26;17.50;99.90
31391;DHT22;18022;45.492;11.548;2023-08-30T02:00:52;17.60;99.90
31391;DHT22;18022;45.492;11.548;2023-08-30T02:03:18;17.60;99.90
31391;DHT22;18022;45.492;11.548;2023-08-30T02:08:55;17.50;99.90
31391;DHT22;18022;45.492;11.548;2023-08-30T02:11:27;17.50;99.90
31391;DHT22;18022;45.492;11.548;2023-08-30T02:13:57;17.50;99.90
31391;DHT22;18022;45.492;11.548;2023-08-30T02:16:25;17.50;99.90
31391;DHT22;18022;45.492;11.548;2023-08-30T02:18:52;17.40;99.90
31391;DHT22;18022;45.492;11.548;2023-08-30T02:21:18;17.40;99.90
31391;DHT22;18022;45.492;11.548;2023-08-30T02:23:48;17.40;99.90
31391;DHT22;18022;45.492;11.548;2023-08-30T02:26:14;17.50;99.90
31391;DHT22;18022;45.492;11.548;2023-08-30T02:28:40;17.50;99.90
31391;DHT22;18022;45.492;11.548;2023-08-30T02:31:05;17.60;99.90
31391;DHT22;18022;45.492;11.548;2023-08-30T02:33:31;17.50;99.90
31391;DHT22;18022;45.492;11.548;2023-08-30T02:35:57;17.50;99.90
31391;DHT22;18022;45.492;11.548;2023-08-30T02:38:22;17.50;99.90
31391;DHT22;18022;45.492;11.548;2023-08-30T02:40:48;17.50;99.90
31391;DHT22;18022;45.492;11.548;2023-08-30T02:43:14;17.50;99.90
31391;DHT22;18022;45.492;11.548;2023-08-30T02:45:40;17.50;99.90
31391;DHT22;18022;45.492;11.548;2023-08-30T02:48:06;17.40;99.90
31391;DHT22;18022;45.492;11.548;2023-08-30T02:50:31;17.40;99.90
31391;DHT22;18022;45.492;11.548;2023-08-30T02:52:57;17.50;99.90
31391;DHT22;18022;45.492;11.548;2023-08-30T02:55:23;17.40;99.90
31391;DHT22;18022;45.492;11.548;2023-08-30T02:57:48;17.40;99.90
31391;DHT22;18022;45.492;11.548;2023-08-30T03:00:15;17.30;99.90
31391;DHT22;18022;45.492;11.548;2023-08-30T03:02:40;17.30;99.90
31391;DHT22;18022;45.492;11.548;2023-08-30T03:05:06;17.30;99.90
31391;DHT22;18022;45.492;11.548;2023-08-30T03:07:32;17.40;99.90
31391;DHT22;18022;45.492;11.548;2023-08-30T03:09:58;17.40;99.90
31391;DHT22;18022;45.492;11.548;2023-08-30T03:12:23;17.40;99.90
31391;DHT22;18022;45.492;11.548;2023-08-30T03:14:49;17.30;99.90
31391;DHT22;18022;45.492;11.548;2023-08-30T03:17:15;17.30;99.90
31391;DHT22;18022;45.492;11.548;2023-08-30T03:19:40;17.40;99.90
31391;DHT22;18022;45.492;11.548;2023-08-30T03:22:06;17.40;99.90
31391;DHT22;18022;45.492;11.548;2023-08-30T03:24:32;17.50;99.90
31391;DHT22;18022;45.492;11.548;2023-08-30T03:26:57;17.50;99.90
31391;DHT22;18022;45.492;11.548;2023-08-30T03:29:25;17.50;99.90
31391;DHT22;18022;45.492;11.548;2023-08-30T03:31:50;17.50;99.90
31391;DHT22;18022;45.492;11.548;2023-08-30T03:34:16;17.50;99.90
31391;DHT22;18022;45.492;11.548;2023-08-30T03:36:42;17.40;99.90
31391;DHT22;18022;45.492;11.548;2023-08-30T03:39:10;17.40;99.90
31391;DHT22;18022;45.492;11.548;2023-08-30T03:41:35;17.40;99.90
31391;DHT22;18022;45.492;11.548;2023-08-30T03:44:01;17.40;99.90
31391;DHT22;18022;45.492;11.548;2023-08-30T03:46:27;17.40;99.90
31391;DHT22;18022;45.492;11.548;2023-08-30T03:48:52;17.40;99.90
31391;DHT22;18022;45.492;11.548;2023-08-30T03:51:18;17.30;99.90
31391;DHT22;18022;45.492;11.548;2023-08-30T03:53:44;17.30;99.90
31391;DHT22;18022;45.492;11.548;2023-08-30T03:56:10;17.30;99.90
31391;DHT22;18022;45.492;11.548;2023-08-30T03:58:35;17.40;99.90
31391;DHT22;18022;45.492;11.548;2023-08-30T04:01:03;17.40;99.90
31391;DHT22;18022;45.492;11.548;2023-08-30T04:03:28;17.40;99.90
31391;DHT22;18022;45.492;11.548;2023-08-30T04:05:55;17.40;99.90
31391;DHT22;18022;45.492;11.548;2023-08-30T04:08:22;17.40;99.90
31391;DHT22;18022;45.492;11.548;2023-08-30T04:10:47;17.30;99.90
31391;DHT22;18022;45.492;11.548;2023-08-30T04:13:14;17.30;99.90
31391;DHT22;18022;45.492;11.548;2023-08-30T04:15:41;17.30;99.90
31391;DHT22;18022;45.492;11.548;2023-08-30T04:18:06;17.20;99.90
31391;DHT22;18022;45.492;11.548;2023-08-30T04:20:33;17.30;99.90
31391;DHT22;18022;45.492;11.548;2023-08-30T04:22:59;17.20;99.90
31391;DHT22;18022;45.492;11.548;2023-08-30T04:25:27;17.30;99.90
31391;DHT22;18022;45.492;11.548;2023-08-30T04:27:53;17.30;99.90
31391;DHT22;18022;45.492;11.548;2023-08-30T04:30:19;17.20;99.90
31391;DHT22;18022;45.492;11.548;2023-08-30T04:32:45;17.20;99.90
31391;DHT22;18022;45.492;11.548;2023-08-30T04:35:11;17.20;99.90
31391;DHT22;18022;45.492;11.548;2023-08-30T04:37:36;17.10;99.90
31391;DHT22;18022;45.492;11.548;2023-08-30T04:40:05;17.10;99.90
31391;DHT22;18022;45.492;11.548;2023-08-30T04:42:31;17.10;99.90
31391;DHT22;18022;45.492;11.548;2023-08-30T04:44:56;17.10;99.90
31391;DHT22;18022;45.492;11.548;2023-08-30T04:47:26;17.10;99.90
31391;DHT22;18022;45.492;11.548;2023-08-30T04:49:52;17.10;99.90
31391;DHT22;18022;45.492;11.548;2023-08-30T04:52:18;17.10;99.90
31391;DHT22;18022;45.492;11.548;2023-08-30T04:54:44;17.10;99.90
31391;DHT22;18022;45.492;11.548;2023-08-30T04:57:11;17.10;99.90
31391;DHT22;18022;45.492;11.548;2023-08-30T04:59:40;17.10;99.90
31391;DHT22;18022;45.492;11.548;2023-08-30T05:02:06;17.10;99.90
31391;DHT22;18022;45.492;11.548;2023-08-30T05:04:32;17.10;99.90
31391;DHT22;18022;45.492;11.548;2023-08-30T05:06:57;17.20;99.90
31391;DHT22;18022;45.492;11.548;2023-08-30T05:09:23;17.10;99.90
31391;DHT22;18022;45.492;11.548;2023-08-30T05:11:51;17.20;99.90
31391;DHT22;18022;45.492;11.548;2023-08-30T05:14:17;17.10;99.90
31391;DHT22;18022;45.492;11.548;2023-08-30T05:16:42;17.10;99.90
31391;DHT22;18022;45.492;11.548;2023-08-30T05:19:08;17.20;99.90
31391;DHT22;18022;45.492;11.548;2023-08-30T05:21:34;17.20;99.90
31391;DHT22;18022;45.492;11.548;2023-08-30T05:24:00;17.20;99.90
31391;DHT22;18022;45.492;11.548;2023-08-30T05:26:25;17.20;99.90
31391;DHT22;18022;45.492;11.548;2023-08-30T05:28:51;17.20;99.90
31391;DHT22;18022;45.492;11.548;2023-08-30T05:31:17;17.20;99.90
31391;DHT22;18022;45.492;11.548;2023-08-30T05:33:43;17.30;99.90
31391;DHT22;18022;45.492;11.548;2023-08-30T05:36:08;17.30;99.90
31391;DHT22;18022;45.492;11.548;2023-08-30T05:38:34;17.30;99.90
31391;DHT22;18022;45.492;11.548;2023-08-30T05:41:00;17.30;99.90
31391;DHT22;18022;45.492;11.548;2023-08-30T05:43:25;17.20;99.90
31391;DHT22;18022;45.492;11.548;2023-08-30T05:45:51;17.30;99.90
31391;DHT22;18022;45.492;11.548;2023-08-30T05:48:17;17.20;99.90
31391;DHT22;18022;45.492;11.548;2023-08-30T05:50:43;17.20;99.90
31391;DHT22;18022;45.492;11.548;2023-08-30T05:53:10;17.30;99.90
31391;DHT22;18022;45.492;11.548;2023-08-30T05:55:36;17.30;99.90
31391;DHT22;18022;45.492;11.548;2023-08-30T05:58:03;17.30;99.90
31391;DHT22;18022;45.492;11.548;2023-08-30T06:00:28;17.30;99.90
31391;DHT22;18022;45.492;11.548;2023-08-30T06:02:54;17.30;99.90
31391;DHT22;18022;45.492;11.548;2023-08-30T06:05:20;17.30;99.90
31391;DHT22;18022;45.492;11.548;2023-08-30T06:07:45;17.40;99.90
31391;DHT22;18022;45.492;11.548;2023-08-30T06:10:11;17.40;99.90
31391;DHT22;18022;45.492;11.548;2023-08-30T06:12:37;17.30;99.90
31391;DHT22;18022;45.492;11.548;2023-08-30T06:15:03;17.30;99.90
31391;DHT22;18022;45.492;11.548;2023-08-30T06:17:29;17.30;99.90
31391;DHT22;18022;45.492;11.548;2023-08-30T06:19:55;17.30;99.90
31391;DHT22;18022;45.492;11.548;2023-08-30T06:22:20;17.40;99.90
31391;DHT22;18022;45.492;11.548;2023-08-30T06:24:46;17.40;99.90
31391;DHT22;18022;45.492;11.548;2023-08-30T06:27:12;17.70;99.90
31391;DHT22;18022;45.492;11.548;2023-08-30T06:29:37;17.60;99.90
31391;DHT22;18022;45.492;11.548;2023-08-30T06:32:04;17.50;99.90
31391;DHT22;18022;45.492;11.548;2023-08-30T06:34:30;17.50;99.90
31391;DHT22;18022;45.492;11.548;2023-08-30T06:36:55;17.50;99.90
31391;DHT22;18022;45.492;11.548;2023-08-30T06:39:21;17.50;99.90
31391;DHT22;18022;45.492;11.548;2023-08-30T06:41:48;17.50;99.90
31391;DHT22;18022;45.492;11.548;2023-08-30T06:44:13;17.50;99.90
31391;DHT22;18022;45.492;11.548;2023-08-30T06:46:39;17.50;99.90
31391;DHT22;18022;45.492;11.548;2023-08-30T06:49:05;17.60;99.90
31391;DHT22;18022;45.492;11.548;2023-08-30T06:51:31;17.60;99.90
31391;DHT22;18022;45.492;11.548;2023-08-30T06:53:56;17.60;99.90
31391;DHT22;18022;45.492;11.548;2023-08-30T06:56:29;17.70;99.90
31391;DHT22;18022;45.492;11.548;2023-08-30T06:58:55;17.70;99.90
31391;DHT22;18022;45.492;11.548;2023-08-30T07:01:20;17.70;99.90
31391;DHT22;18022;45.492;11.548;2023-08-30T07:03:46;17.70;99.90
31391;DHT22;18022;45.492;11.548;2023-08-30T07:06:12;17.70;99.90
31391;DHT22;18022;45.492;11.548;2023-08-30T07:08:37;17.80;99.90
31391;DHT22;18022;45.492;11.548;2023-08-30T07:11:03;17.80;99.90
31391;DHT22;18022;45.492;11.548;2023-08-30T07:13:29;17.70;99.90
31391;DHT22;18022;45.492;11.548;2023-08-30T07:15:55;17.80;99.90
31391;DHT22;18022;45.492;11.548;2023-08-30T07:18:20;17.80;99.90
31391;DHT22;18022;45.492;11.548;2023-08-30T07:20:46;17.90;99.90
31391;DHT22;18022;45.492;11.548;2023-08-30T07:23:12;17.90;99.90
31391;DHT22;18022;45.492;11.548;2023-08-30T07:25:38;17.90;99.90
31391;DHT22;18022;45.492;11.548;2023-08-30T07:28:05;17.90;99.90
31391;DHT22;18022;45.492;11.548;2023-08-30T07:30:30;17.90;99.90
31391;DHT22;18022;45.492;11.548;2023-08-30T07:32:56;18.00;99.90
31391;DHT22;18022;45.492;11.548;2023-08-30T07:35:25;18.00;99.90
31391;DHT22;18022;45.492;11.548;2023-08-30T07:37:50;18.10;99.90
31391;DHT22;18022;45.492;11.548;2023-08-30T07:40:16;18.20;99.90
31391;DHT22;18022;45.492;11.548;2023-08-30T07:42:42;18.20;99.90
31391;DHT22;18022;45.492;11.548;2023-08-30T07:45:08;18.20;99.90
31391;DHT22;18022;45.492;11.548;2023-08-30T07:47:35;18.30;99.90
31391;DHT22;18022;45.492;11.548;2023-08-30T07:50:00;18.30;99.90
31391;DHT22;18022;45.492;11.548;2023-08-30T07:52:26;18.30;99.90
31391;DHT22;18022;45.492;11.548;2023-08-30T07:54:52;18.40;99.90
31391;DHT22;18022;45.492;11.548;2023-08-30T07:57:17;18.50;99.90
31391;DHT22;18022;45.492;11.548;2023-08-30T07:59:43;18.40;99.90
31391;DHT22;18022;45.492;11.548;2023-08-30T08:02:09;18.40;99.90
31391;DHT22;18022;45.492;11.548;2023-08-30T08:04:35;18.50;99.90
31391;DHT22;18022;45.492;11.548;2023-08-30T08:07:02;18.50;99.90
31391;DHT22;18022;45.492;11.548;2023-08-30T08:09:28;18.60;99.90
31391;DHT22;18022;45.492;11.548;2023-08-30T08:11:54;18.60;99.90
31391;DHT22;18022;45.492;11.548;2023-08-30T08:14:22;18.70;99.90
31391;DHT22;18022;45.492;11.548;2023-08-30T08:16:47;18.70;99.90
31391;DHT22;18022;45.492;11.548;2023-08-30T08:19:13;18.80;99.90
31391;DHT22;18022;45.492;11.548;2023-08-30T08:21:38;18.90;99.90
31391;DHT22;18022;45.492;11.548;2023-08-30T08:24:04;19.00;99.90
31391;DHT22;18022;45.492;11.548;2023-08-30T08:26:30;19.00;99.90
31391;DHT22;18022;45.492;11.548;2023-08-30T08:28:56;18.80;99.90
31391;DHT22;18022;45.492;11.548;2023-08-30T08:31:22;18.80;99.90
31391;DHT22;18022;45.492;11.548;2023-08-30T08:33:51;19.00;99.90
31391;DHT22;18022;45.492;11.548;2023-08-30T08:36:19;19.00;99.90
31391;DHT22;18022;45.492;11.548;2023-08-30T08:38:45;19.00;99.90
31391;DHT22;18022;45.492;11.548;2023-08-30T08:41:13;19.10;99.90
31391;DHT22;18022;45.492;11.548;2023-08-30T08:43:42;19.20;99.90
31391;DHT22;18022;45.492;11.548;2023-08-30T08:46:09;19.40;99.90
31391;DHT22;18022;45.492;11.548;2023-08-30T08:48:40;19.40;99.90
31391;DHT22;18022;45.492;11.548;2023-08-30T08:51:06;19.30;99.90
31391;DHT22;18022;45.492;11.548;2023-08-30T08:53:32;19.50;99.90
31391;DHT22;18022;45.492;11.548;2023-08-30T08:55:58;19.50;99.90
31391;DHT22;18022;45.492;11.548;2023-08-30T08:58:26;19.70;99.90
31391;DHT22;18022;45.492;11.548;2023-08-30T09:00:52;19.70;99.90
31391;DHT22;18022;45.492;11.548;2023-08-30T09:03:18;19.60;99.90
31391;DHT22;18022;45.492;11.548;2023-08-30T09:05:45;19.70;99.90
31391;DHT22;18022;45.492;11.548;2023-08-30T09:08:12;19.70;99.90
31391;DHT22;18022;45.492;11.548;2023-08-30T09:10:41;19.70;99.90
31391;DHT22;18022;45.492;11.548;2023-08-30T09:13:06;19.80;99.90
31391;DHT22;18022;45.492;11.548;2023-08-30T09:15:33;19.80;99.90
31391;DHT22;18022;45.492;11.548;2023-08-30T09:17:59;19.80;99.90
31391;DHT22;18022;45.492;11.548;2023-08-30T09:20:25;19.90;99.90
31391;DHT22;18022;45.492;11.548;2023-08-30T09:22:50;20.00;99.90
31391;DHT22;18022;45.492;11.548;2023-08-30T09:25:24;20.00;99.90
31391;DHT22;18022;45.492;11.548;2023-08-30T09:27:50;20.10;99.90
31391;DHT22;18022;45.492;11.548;2023-08-30T09:30:22;20.20;99.90
31391;DHT22;18022;45.492;11.548;2023-08-30T09:32:47;20.20;99.90
31391;DHT22;18022;45.492;11.548;2023-08-30T09:35:13;20.20;99.90
31391;DHT22;18022;45.492;11.548;2023-08-30T09:37:39;20.20;99.90
31391;DHT22;18022;45.492;11.548;2023-08-30T09:40:05;20.20;99.90
31391;DHT22;18022;45.492;11.548;2023-08-30T09:42:31;20.40;99.90
31391;DHT22;18022;45.492;11.548;2023-08-30T09:44:57;20.40;99.90
31391;DHT22;18022;45.492;11.548;2023-08-30T09:47:26;20.40;99.90
31391;DHT22;18022;45.492;11.548;2023-08-30T09:49:55;20.50;99.90
31391;DHT22;18022;45.492;11.548;2023-08-30T09:52:23;20.50;99.90
31391;DHT22;18022;45.492;11.548;2023-08-30T09:54:51;20.50;99.90
31391;DHT22;18022;45.492;11.548;2023-08-30T09:57:17;20.40;99.90
31391;DHT22;18022;45.492;11.548;2023-08-30T09:59:44;20.50;99.90
31391;DHT22;18022;45.492;11.548;2023-08-30T10:02:11;20.90;99.90
31391;DHT22;18022;45.492;11.548;2023-08-30T10:04:40;21.10;99.90
31391;DHT22;18022;45.492;11.548;2023-08-30T10:07:07;20.90;99.90
31391;DHT22;18022;45.492;11.548;2023-08-30T10:09:32;20.70;99.90
31391;DHT22;18022;45.492;11.548;2023-08-30T10:11:58;20.80;99.90
31391;DHT22;18022;45.492;11.548;2023-08-30T10:14:26;20.80;99.90
31391;DHT22;18022;45.492;11.548;2023-08-30T10:17:02;20.80;99.90
31391;DHT22;18022;45.492;11.548;2023-08-30T10:19:31;20.90;99.90
31391;DHT22;18022;45.492;11.548;2023-08-30T10:22:02;21.00;99.90
31391;DHT22;18022;45.492;11.548;2023-08-30T10:24:46;21.10;99.90
31391;DHT22;18022;45.492;11.548;2023-08-30T10:27:14;21.10;99.90
31391;DHT22;18022;45.492;11.548;2023-08-30T10:29:41;21.20;99.90
31391;DHT22;18022;45.492;11.548;2023-08-30T10:32:08;21.50;99.90
31391;DHT22;18022;45.492;11.548;2023-08-30T10:34:35;21.60;99.90
31391;DHT22;18022;45.492;11.548;2023-08-30T10:37:03;21.60;99.90
31391;DHT22;18022;45.492;11.548;2023-08-30T10:39:41;21.60;99.90
31391;DHT22;18022;45.492;11.548;2023-08-30T10:42:12;21.70;99.90
31391;DHT22;18022;45.492;11.548;2023-08-30T10:49:58;21.80;99.90
31391;DHT22;18022;45.492;11.548;2023-08-30T10:52:25;21.90;99.90
31391;DHT22;18022;45.492;11.548;2023-08-30T10:54:51;22.00;99.90
31391;DHT22;18022;45.492;11.548;2023-08-30T10:57:24;22.20;99.90
31391;DHT22;18022;45.492;11.548;2023-08-30T11:00:11;22.30;99.90
31391;DHT22;18022;45.492;11.548;2023-08-30T11:02:42;22.40;99.90
31391;DHT22;18022;45.492;11.548;2023-08-30T11:05:08;22.30;99.90
31391;DHT22;18022;45.492;11.548;2023-08-30T11:07:35;22.20;99.90
31391;DHT22;18022;45.492;11.548;2023-08-30T11:10:01;22.30;99.90
31391;DHT22;18022;45.492;11.548;2023-08-30T11:12:29;22.40;99.90
31391;DHT22;18022;45.492;11.548;2023-08-30T11:14:56;22.80;99.90
31391;DHT22;18022;45.492;11.548;2023-08-30T11:17:22;23.20;99.90
31391;DHT22;18022;45.492;11.548;2023-08-30T11:19:57;23.40;99.90
31391;DHT22;18022;45.492;11.548;2023-08-30T11:22:24;23.30;99.50
31391;DHT22;18022;45.492;11.548;2023-08-30T11:24:50;23.30;99.30
31391;DHT22;18022;45.492;11.548;2023-08-30T11:27:19;23.30;99.90
31391;DHT22;18022;45.492;11.548;2023-08-30T11:29:45;23.50;99.50
31391;DHT22;18022;45.492;11.548;2023-08-30T11:32:10;23.60;99.50
31391;DHT22;18022;45.492;11.548;2023-08-30T11:34:36;23.60;99.70
31391;DHT22;18022;45.492;11.548;2023-08-30T11:37:02;23.80;99.90
31391;DHT22;18022;45.492;11.548;2023-08-30T11:39:30;24.00;99.90
31391;DHT22;18022;45.492;11.548;2023-08-30T11:41:56;23.80;96.90
31391;DHT22;18022;45.492;11.548;2023-08-30T11:44:28;23.50;99.00
31391;DHT22;18022;45.492;11.548;2023-08-30T11:47:00;23.70;98.70
31391;DHT22;18022;45.492;11.548;2023-08-30T11:49:29;23.80;98.70
31391;DHT22;18022;45.492;11.548;2023-08-30T11:51:55;24.10;99.20
31391;DHT22;18022;45.492;11.548;2023-08-30T11:54:23;24.20;98.20
31391;DHT22;18022;45.492;11.548;2023-08-30T11:56:50;24.20;98.20
31391;DHT22;18022;45.492;11.548;2023-08-30T11:59:22;24.20;98.30
31391;DHT22;18022;45.492;11.548;2023-08-30T12:01:54;24.50;97.70
31391;DHT22;18022;45.492;11.548;2023-08-30T12:04:20;24.60;97.80
31391;DHT22;18022;45.492;11.548;2023-08-30T12:06:54;24.60;96.90
31391;DHT22;18022;45.492;11.548;2023-08-30T12:09:20;24.40;97.50
31391;DHT22;18022;45.492;11.548;2023-08-30T12:11:51;24.50;98.20
31391;DHT22;18022;45.492;11.548;2023-08-30T12:14:18;24.30;99.00
31391;DHT22;18022;45.492;11.548;2023-08-30T12:16:43;24.20;98.10
31391;DHT22;18022;45.492;11.548;2023-08-30T12:19:12;24.20;99.10
31391;DHT22;18022;45.492;11.548;2023-08-30T12:21:43;24.30;97.90
31391;DHT22;18022;45.492;11.548;2023-08-30T12:24:09;24.40;98.00
31391;DHT22;18022;45.492;11.548;2023-08-30T12:26:35;24.60;96.70
31391;DHT22;18022;45.492;11.548;2023-08-30T12:29:01;24.60;98.40
31391;DHT22;18022;45.492;11.548;2023-08-30T12:31:27;24.80;96.60
31391;DHT22;18022;45.492;11.548;2023-08-30T12:33:54;24.60;97.40
31391;DHT22;18022;45.492;11.548;2023-08-30T12:36:20;24.50;96.40
31391;DHT22;18022;45.492;11.548;2023-08-30T12:38:45;24.50;97.60
31391;DHT22;18022;45.492;11.548;2023-08-30T12:41:12;24.60;97.20
31391;DHT22;18022;45.492;11.548;2023-08-30T12:43:38;24.60;97.50
31391;DHT22;18022;45.492;11.548;2023-08-30T12:46:03;24.90;97.30
31391;DHT22;18022;45.492;11.548;2023-08-30T12:48:29;25.10;96.50
31391;DHT22;18022;45.492;11.548;2023-08-30T12:50:55;25.30;98.20
31391;DHT22;18022;45.492;11.548;2023-08-30T12:53:21;25.20;97.40
31391;DHT22;18022;45.492;11.548;2023-08-30T12:55:47;25.30;98.70
31391;DHT22;18022;45.492;11.548;2023-08-30T12:58:12;25.00;97.30
31391;DHT22;18022;45.492;11.548;2023-08-30T13:00:39;24.70;98.50
31391;DHT22;18022;45.492;11.548;2023-08-30T13:03:05;24.50;99.40
31391;DHT22;18022;45.492;11.548;2023-08-30T13:05:31;24.30;99.90
31391;DHT22;18022;45.492;11.548;2023-08-30T13:07:58;24.20;99.10
31391;DHT22;18022;45.492;11.548;2023-08-30T13:10:24;24.20;99.20
31391;DHT22;18022;45.492;11.548;2023-08-30T13:12:50;24.10;98.70
31391;DHT22;18022;45.492;11.548;2023-08-30T13:15:16;24.10;97.50
31391;DHT22;18022;45.492;11.548;2023-08-30T13:17:41;24.10;99.90
31391;DHT22;18022;45.492;11.548;2023-08-30T13:20:07;24.00;99.90
31391;DHT22;18022;45.492;11.548;2023-08-30T13:22:33;24.10;99.80
31391;DHT22;18022;45.492;11.548;2023-08-30T13:24:59;24.30;99.40
31391;DHT22;18022;45.492;11.548;2023-08-30T13:27:25;24.50;99.40
31391;DHT22;18022;45.492;11.548;2023-08-30T13:29:51;24.60;99.10
31391;DHT22;18022;45.492;11.548;2023-08-30T13:32:16;24.90;98.70
31391;DHT22;18022;45.492;11.548;2023-08-30T13:34:42;24.90;98.00
31391;DHT22;18022;45.492;11.548;2023-08-30T13:37:11;24.70;97.40
31391;DHT22;18022;45.492;11.548;2023-08-30T13:39:38;24.50;99.70
31391;DHT22;18022;45.492;11.548;2023-08-30T13:42:04;24.30;99.00
31391;DHT22;18022;45.492;11.548;2023-08-30T13:44:30;23.90;99.60
31391;DHT22;18022;45.492;11.548;2023-08-30T13:46:55;23.80;98.90
31391;DHT22;18022;45.492;11.548;2023-08-30T13:49:21;23.50;99.40
31391;DHT22;18022;45.492;11.548;2023-08-30T13:51:48;23.60;99.90
31391;DHT22;18022;45.492;11.548;2023-08-30T13:54:14;23.70;99.20
31391;DHT22;18022;45.492;11.548;2023-08-30T13:56:39;23.80;99.60
31391;DHT22;18022;45.492;11.548;2023-08-30T13:59:06;24.10;99.90
31391;DHT22;18022;45.492;11.548;2023-08-30T14:01:33;24.40;99.90
31391;DHT22;18022;45.492;11.548;2023-08-30T14:04:00;24.60;99.00
31391;DHT22;18022;45.492;11.548;2023-08-30T14:06:26;24.70;99.40
31391;DHT22;18022;45.492;11.548;2023-08-30T14:08:52;24.70;98.80
31391;DHT22;18022;45.492;11.548;2023-08-30T14:11:18;24.60;99.20
31391;DHT22;18022;45.492;11.548;2023-08-30T14:13:43;24.60;98.50
31391;DHT22;18022;45.492;11.548;2023-08-30T14:16:09;24.60;99.10
31391;DHT22;18022;45.492;11.548;2023-08-30T14:18:35;24.60;98.30
31391;DHT22;18022;45.492;11.548;2023-08-30T14:21:02;24.70;97.80
31391;DHT22;18022;45.492;11.548;2023-08-30T14:23:29;24.50;97.80
31391;DHT22;18022;45.492;11.548;2023-08-30T14:25:58;24.50;98.10
31391;DHT22;18022;45.492;11.548;2023-08-30T14:28:24;24.60;98.50
31391;DHT22;18022;45.492;11.548;2023-08-30T14:30:51;24.80;99.80
31391;DHT22;18022;45.492;11.548;2023-08-30T14:33:16;24.80;99.80
31391;DHT22;18022;45.492;11.548;2023-08-30T14:35:43;24.80;98.90
31391;DHT22;18022;45.492;11.548;2023-08-30T14:38:09;24.80;98.50
31391;DHT22;18022;45.492;11.548;2023-08-30T14:40:35;24.80;99.90
31391;DHT22;18022;45.492;11.548;2023-08-30T14:43:03;24.60;98.90
31391;DHT22;18022;45.492;11.548;2023-08-30T14:45:29;24.50;99.90
31391;DHT22;18022;45.492;11.548;2023-08-30T14:47:55;24.20;99.90
31391;DHT22;18022;45.492;11.548;2023-08-30T14:50:20;24.10;99.90
31391;DHT22;18022;45.492;11.548;2023-08-30T14:52:46;24.00;99.90
31391;DHT22;18022;45.492;11.548;2023-08-30T14:55:12;24.00;99.90
31391;DHT22;18022;45.492;11.548;2023-08-30T14:57:37;23.80;99.90
31391;DHT22;18022;45.492;11.548;2023-08-30T15:00:04;23.80;99.90
31391;DHT22;18022;45.492;11.548;2023-08-30T15:02:31;23.60;99.90
31391;DHT22;18022;45.492;11.548;2023-08-30T15:04:57;23.60;99.90
31391;DHT22;18022;45.492;11.548;2023-08-30T15:07:22;23.60;99.90
31391;DHT22;18022;45.492;11.548;2023-08-30T15:09:48;23.60;99.90
31391;DHT22;18022;45.492;11.548;2023-08-30T15:12:15;23.50;99.90
31391;DHT22;18022;45.492;11.548;2023-08-30T15:14:41;23.30;99.90
31391;DHT22;18022;45.492;11.548;2023-08-30T15:17:09;23.30;99.90
31391;DHT22;18022;45.492;11.548;2023-08-30T15:19:35;23.30;99.90
31391;DHT22;18022;45.492;11.548;2023-08-30T15:22:01;23.00;99.90